Time;durP1;ratioP1;P1;durP2;ratioP2;P2;SDS_P1;SDS_P2;PMS_P1;PMS_P2;Temp;Humidity;BMP_temperature;BMP_pressure;BME280_temperature;BME280_humidity;BME280_pressure;Samples;Min_cycle;Max_cycle;Signal;HPM_P1;HPM_P2
2022/08/10 00:00:21;;;;;;;5.90;2.22;;;;;;;20.37;54.01;101022.19;1779773;80;21044;-47
2022/08/10 00:02:55;;;;;;;4.37;2.10;;;;;;;20.36;54.27;101022.70;1775590;80;21076;-47
2022/08/10 00:05:21;;;;;;;4.97;2.15;;;;;;;20.36;54.18;101019.20;1769985;79;21568;-48
2022/08/10 00:07:50;;;;;;;4.97;2.12;;;;;;;20.35;54.67;101023.69;1795033;78;21221;-47
2022/08/10 00:10:17;;;;;;;4.08;2.05;;;;;;;20.32;56.69;101021.35;1796202;78;21033;-50
2022/08/10 00:12:45;;;;;;;7.08;2.40;;;;;;;20.28;57.40;101025.90;1792048;78;21252;-47
2022/08/10 00:15:15;;;;;;;5.50;2.52;;;;;;;20.28;57.73;101024.05;1791884;78;21100;-47
2022/08/10 00:17:42;;;;;;;6.17;2.60;;;;;;;20.30;57.97;101023.88;1799475;78;21046;-48
2022/08/10 00:20:10;;;;;;;4.42;2.15;;;;;;;20.31;58.21;101021.52;1774828;80;21135;-47
2022/08/10 00:22:36;;;;;;;4.75;2.45;;;;;;;20.33;58.08;101015.02;1772301;78;21489;-47
2022/08/10 00:25:04;;;;;;;6.55;2.60;;;;;;;20.34;58.08;101015.84;1806045;78;21029;-47
2022/08/10 00:27:31;;;;;;;4.40;1.92;;;;;;;20.34;57.99;101014.50;1806174;78;21045;-47
2022/08/10 00:29:57;;;;;;;6.95;2.62;;;;;;;20.32;58.22;101017.34;1795083;78;21515;-47
2022/08/10 00:32:24;;;;;;;4.12;2.12;;;;;;;20.33;58.34;101018.20;1798657;78;21612;-47
2022/08/10 00:34:51;;;;;;;5.78;2.22;;;;;;;20.30;58.49;101017.20;1805299;78;21010;-47
2022/08/10 00:37:17;;;;;;;4.85;2.10;;;;;;;20.26;58.70;101010.03;1800325;78;21037;-47
2022/08/10 00:39:45;;;;;;;4.45;1.75;;;;;;;20.23;58.73;101007.19;1802891;78;21098;-47
2022/08/10 00:42:13;;;;;;;4.50;1.98;;;;;;;20.21;58.92;101014.55;1802414;78;21010;-48
2022/08/10 00:44:44;;;;;;;8.45;2.22;;;;;;;20.20;59.23;101012.87;1799561;78;21175;-47
2022/08/10 00:47:12;;;;;;;4.90;1.92;;;;;;;20.26;59.12;101013.19;1806500;78;21067;-47
2022/08/10 00:49:39;;;;;;;4.15;2.08;;;;;;;20.30;59.07;101012.68;1796530;78;21470;-47
2022/08/10 00:52:06;;;;;;;4.30;2.10;;;;;;;20.30;59.11;101006.00;1803908;78;21038;-47
2022/08/10 00:54:35;;;;;;;5.50;2.12;;;;;;;20.31;58.98;101009.50;1790776;78;21317;-48
2022/08/10 00:57:04;;;;;;;5.95;2.00;;;;;;;20.30;59.08;101007.85;1798289;78;21138;-48
2022/08/10 00:59:31;;;;;;;3.87;1.75;;;;;;;20.29;59.16;100998.16;1791357;79;22144;-48
2022/08/10 01:01:58;;;;;;;5.20;2.37;;;;;;;20.32;59.23;100999.16;1791413;79;22282;-47
2022/08/10 01:04:25;;;;;;;4.37;1.90;;;;;;;20.31;59.37;101006.83;1789046;79;20990;-47
2022/08/10 01:07:34;;;;;;;6.15;2.12;;;;;;;20.29;59.44;101007.50;1800687;78;21037;-48
2022/08/10 01:10:39;;;;;;;4.95;2.40;;;;;;;20.21;59.56;101006.53;1786535;79;21093;-48
2022/08/10 01:13:12;;;;;;;5.00;1.98;;;;;;;20.15;59.55;101009.87;1776458;79;21121;-47
2022/08/10 01:15:56;;;;;;;4.28;2.08;;;;;;;20.11;59.74;101003.22;1773537;79;21009;-47
2022/08/10 01:18:40;;;;;;;4.83;2.20;;;;;;;20.13;59.86;101004.39;1775566;78;21027;-47
2022/08/10 01:21:38;;;;;;;3.33;1.70;;;;;;;20.18;59.82;101000.19;1771539;80;21578;-47
2022/08/10 01:24:22;;;;;;;5.05;1.87;;;;;;;20.26;59.62;101002.50;1782497;78;21151;-52
2022/08/10 01:27:18;;;;;;;5.28;2.45;;;;;;;20.27;59.91;100998.83;1785124;79;21085;-47
2022/08/10 01:30:05;;;;;;;6.30;2.00;;;;;;;20.25;60.08;101001.67;1735069;80;21089;-47
2022/08/10 01:32:58;;;;;;;5.45;2.30;;;;;;;20.26;59.92;101010.52;1787801;80;20990;-47
2022/08/10 01:35:47;;;;;;;6.33;2.50;;;;;;;20.20;59.98;101004.85;1786390;79;21074;-47
2022/08/10 01:38:28;;;;;;;4.42;2.02;;;;;;;20.16;60.27;100999.53;1783853;78;21139;-47
2022/08/10 01:41:09;;;;;;;6.70;2.30;;;;;;;20.11;60.42;100991.20;1784601;79;21552;-47
2022/08/10 01:43:44;;;;;;;4.83;2.20;;;;;;;20.10;60.42;100992.70;1763009;79;21107;-46
2022/08/10 01:46:11;;;;;;;7.40;2.37;;;;;;;20.10;60.61;100992.19;1746928;80;21112;-47
2022/08/10 01:48:42;;;;;;;6.35;2.27;;;;;;;20.14;60.42;100993.53;1747199;79;21077;-47
2022/08/10 01:51:31;;;;;;;4.92;2.08;;;;;;;20.17;60.64;101001.21;1786425;78;21218;-47
2022/08/10 01:54:06;;;;;;;5.37;2.17;;;;;;;20.18;60.42;100988.67;1776197;79;21085;-46
2022/08/10 01:56:36;;;;;;;8.15;3.10;;;;;;;20.18;60.43;100988.16;1775898;79;21537;-47
2022/08/10 01:59:09;;;;;;;5.22;2.47;;;;;;;20.18;61.06;100981.48;1783125;79;21517;-47
2022/08/10 02:01:51;;;;;;;4.47;2.20;;;;;;;20.20;60.25;100983.48;1774535;79;21094;-46
2022/08/10 02:04:18;;;;;;;5.60;2.08;;;;;;;20.25;59.71;100988.83;1771352;79;21242;-47
2022/08/10 02:06:49;;;;;;;5.00;2.30;;;;;;;20.25;59.62;100988.31;1779171;79;21053;-47
2022/08/10 02:09:27;;;;;;;5.28;1.87;;;;;;;20.24;59.35;100988.00;1797053;78;21037;-47
2022/08/10 02:11:56;;;;;;;4.85;2.02;;;;;;;20.21;59.14;100990.50;1788453;78;21045;-47
2022/08/10 02:14:26;;;;;;;4.78;1.87;;;;;;;20.18;59.06;100990.84;1791915;78;21040;-61
2022/08/10 02:16:53;;;;;;;5.72;2.05;;;;;;;20.18;59.02;100990.02;1784500;80;21311;-61
2022/08/10 02:19:21;;;;;;;4.15;1.90;;;;;;;20.17;58.74;100978.98;1785144;78;20990;-61
2022/08/10 02:21:53;;;;;;;4.33;1.80;;;;;;;20.15;58.59;100972.98;1780505;78;20998;-61
2022/08/10 02:24:24;;;;;;;3.98;1.80;;;;;;;20.16;58.98;100975.48;1785855;78;21064;-46
2022/08/10 02:26:50;;;;;;;5.90;1.80;;;;;;;20.22;58.79;100968.13;1708206;81;21542;-46
2022/08/10 02:29:17;;;;;;;4.12;1.82;;;;;;;20.28;58.86;100969.78;1760691;80;22013;-46
2022/08/10 02:31:43;;;;;;;3.30;1.70;;;;;;;20.27;58.98;100971.60;1774360;79;20999;-46
2022/08/10 02:34:11;;;;;;;3.60;1.60;;;;;;;20.28;59.03;100972.45;1766126;79;21057;-47
2022/08/10 02:36:43;;;;;;;4.42;1.75;;;;;;;20.29;59.08;100972.77;1787084;78;21592;-47
2022/08/10 02:39:10;;;;;;;3.50;1.72;;;;;;;20.29;59.17;100970.09;1791693;78;21022;-47
2022/08/10 02:41:50;;;;;;;5.55;1.95;;;;;;;20.27;59.32;100979.61;1796626;79;21878;-46
2022/08/10 02:44:33;;;;;;;4.25;1.90;;;;;;;20.24;59.28;100985.33;1799935;79;21792;-46
2022/08/10 02:47:04;;;;;;;4.05;2.10;;;;;;;20.19;58.62;100995.67;1789199;79;21116;-46
2022/08/10 02:49:34;;;;;;;3.83;1.80;;;;;;;20.12;59.20;101004.87;1789312;78;21053;-46
2022/08/10 02:52:08;;;;;;;3.72;1.60;;;;;;;20.09;59.26;101002.56;1792921;79;21071;-47
2022/08/10 02:54:38;;;;;;;4.62;1.80;;;;;;;20.12;59.10;101009.39;1766593;80;21138;-47
2022/08/10 02:57:17;;;;;;;4.95;2.27;;;;;;;20.09;59.26;100997.22;1787609;78;21695;-47
2022/08/10 02:59:48;;;;;;;5.00;2.15;;;;;;;20.06;58.80;100992.21;1791140;80;21565;-47
2022/08/10 03:02:25;;;;;;;4.15;2.08;;;;;;;20.03;58.53;100989.87;1762670;80;21546;-46
2022/08/10 03:04:54;;;;;;;5.28;2.02;;;;;;;20.00;58.56;100990.21;1760429;80;21083;-46
2022/08/10 03:07:21;;;;;;;5.03;2.10;;;;;;;19.96;59.10;100990.23;1766802;80;21088;-47
2022/08/10 03:09:49;;;;;;;4.20;2.22;;;;;;;19.93;59.68;100996.73;1762290;80;21084;-46
2022/08/10 03:12:15;;;;;;;4.50;2.27;;;;;;;19.93;59.81;101006.59;1751822;80;21084;-46
2022/08/10 03:14:41;;;;;;;5.83;2.10;;;;;;;19.91;59.49;101005.42;1776917;80;21075;-47
2022/08/10 03:17:08;;;;;;;5.45;2.00;;;;;;;19.96;59.58;101002.25;1774098;80;21038;-46
2022/08/10 03:19:35;;;;;;;4.37;2.30;;;;;;;19.99;59.50;100997.91;1769884;79;21189;-47
2022/08/10 03:22:02;;;;;;;4.70;2.42;;;;;;;20.01;59.61;101011.92;1763363;80;21050;-46
2022/08/10 03:24:29;;;;;;;4.53;2.22;;;;;;;20.06;59.77;101012.76;1774716;80;21420;-47
2022/08/10 03:26:55;;;;;;;4.78;2.20;;;;;;;20.09;59.67;101015.92;1765504;80;21521;-46
2022/08/10 03:29:22;;;;;;;4.62;2.33;;;;;;;20.07;59.52;101005.06;1746599;80;21560;-47
2022/08/10 03:31:49;;;;;;;4.95;2.45;;;;;;;20.03;59.80;100999.22;1770492;79;21240;-46
2022/08/10 03:34:15;;;;;;;4.25;2.37;;;;;;;19.99;59.67;100995.24;1767867;80;21102;-47
2022/08/10 03:36:42;;;;;;;6.17;2.08;;;;;;;19.96;59.77;100995.06;1769564;79;21031;-46
2022/08/10 03:39:09;;;;;;;4.37;2.33;;;;;;;19.92;59.60;100998.23;1784120;78;21108;-48
2022/08/10 03:41:48;;;;;;;4.22;2.12;;;;;;;19.85;59.45;100999.41;1786664;78;21110;-46
2022/08/10 03:44:22;;;;;;;4.17;2.27;;;;;;;19.83;59.81;101002.25;1770387;80;21197;-47
2022/08/10 03:46:48;;;;;;;5.60;2.37;;;;;;;19.86;59.67;101014.44;1768167;80;21082;-46
2022/08/10 03:49:16;;;;;;;5.20;2.10;;;;;;;19.83;59.60;101014.27;1770737;80;21031;-46
2022/08/10 03:51:42;;;;;;;5.67;2.45;;;;;;;19.80;59.75;101010.63;1768581;79;21050;-47
2022/08/10 03:54:09;;;;;;;4.80;2.30;;;;;;;19.77;60.02;101000.27;1766478;80;21038;-46
2022/08/10 03:56:38;;;;;;;5.22;2.52;;;;;;;19.73;60.28;100994.06;1769819;80;21176;-47
2022/08/10 03:59:11;;;;;;;6.80;2.15;;;;;;;19.67;60.56;100996.40;1772387;79;21576;-46
2022/08/10 04:01:38;;;;;;;4.85;2.42;;;;;;;19.67;60.66;101016.94;1766689;80;21558;-47
2022/08/10 04:04:05;;;;;;;5.83;2.47;;;;;;;19.65;60.62;101014.91;1771850;80;21082;-46
2022/08/10 04:06:31;;;;;;;5.08;2.33;;;;;;;19.68;60.71;101003.90;1773393;79;21585;-46
2022/08/10 04:08:58;;;;;;;5.78;2.80;;;;;;;19.70;60.57;101003.22;1765930;80;21147;-46
2022/08/10 04:11:24;;;;;;;3.83;2.00;;;;;;;19.72;60.13;101004.39;1788798;79;21044;-46
2022/08/10 04:13:51;;;;;;;4.45;2.58;;;;;;;19.69;60.11;101006.91;1765662;80;21085;-46
2022/08/10 04:16:17;;;;;;;4.60;2.40;;;;;;;19.66;60.03;100990.72;1767057;80;21059;-46
2022/08/10 04:18:44;;;;;;;5.25;2.30;;;;;;;19.63;60.01;100986.22;1762366;80;21047;-47
2022/08/10 04:21:14;;;;;;;5.28;2.62;;;;;;;19.60;60.40;100999.41;1766427;79;21136;-46
2022/08/10 04:23:45;;;;;;;5.05;2.55;;;;;;;19.58;60.20;101005.39;1755928;80;21054;-47
2022/08/10 04:26:11;;;;;;;5.22;2.22;;;;;;;19.54;60.08;101008.08;1772790;80;21547;-46
2022/08/10 04:28:39;;;;;;;5.65;2.40;;;;;;;19.57;60.15;101013.09;1776097;78;21516;-46
2022/08/10 04:31:07;;;;;;;7.03;2.10;;;;;;;19.64;60.13;101017.27;1778648;80;21050;-46
2022/08/10 04:33:34;;;;;;;3.92;2.05;;;;;;;19.74;60.15;101030.45;1772592;80;21133;-46
2022/08/10 04:36:00;;;;;;;4.45;2.10;;;;;;;19.78;59.49;101040.64;1781491;78;21037;-47
2022/08/10 04:38:27;;;;;;;6.12;2.20;;;;;;;19.80;59.29;101053.34;1747257;80;21180;-46
2022/08/10 04:40:55;;;;;;;4.33;2.35;;;;;;;19.81;59.69;101048.31;1768443;78;21088;-46
2022/08/10 04:43:21;;;;;;;4.42;2.22;;;;;;;19.83;59.12;101047.64;1774573;80;21061;-47
2022/08/10 04:45:48;;;;;;;5.55;2.58;;;;;;;19.82;59.17;101029.97;1758472;80;21140;-46
2022/08/10 04:48:15;;;;;;;5.50;2.33;;;;;;;19.80;59.09;101029.79;1777999;78;21105;-46
2022/08/10 04:50:41;;;;;;;7.15;2.75;;;;;;;19.75;59.52;101023.61;1778011;80;21376;-47
2022/08/10 04:53:08;;;;;;;7.53;2.50;;;;;;;19.73;59.48;101028.26;1779369;79;21124;-46
2022/08/10 04:55:34;;;;;;;5.33;2.55;;;;;;;19.76;59.34;101025.80;1771923;78;21056;-47
2022/08/10 04:58:00;;;;;;;5.97;2.60;;;;;;;19.81;59.35;101040.30;1781283;80;21129;-47
2022/08/10 05:00:27;;;;;;;5.03;2.72;;;;;;;19.84;59.26;101037.30;1770146;80;21066;-47
2022/08/10 05:02:53;;;;;;;4.90;2.58;;;;;;;19.85;59.03;101034.13;1775025;78;21101;-46
2022/08/10 05:05:20;;;;;;;4.50;2.15;;;;;;;19.86;59.21;101022.45;1774435;80;21098;-47
2022/08/10 05:07:47;;;;;;;4.40;2.80;;;;;;;19.84;59.44;101021.28;1762622;80;21074;-46
2022/08/10 05:12:29;;;;;;;5.47;2.10;;;;;;;19.88;59.10;101010.27;1788952;79;22290;-48
2022/08/10 05:14:56;;;;;;;4.87;2.30;;;;;;;19.85;59.38;101004.75;1748319;80;21456;-48
2022/08/10 05:17:22;;;;;;;6.83;2.37;;;;;;;19.84;59.82;100998.59;1749645;81;21130;-47
2022/08/10 05:19:49;;;;;;;4.58;2.17;;;;;;;19.91;59.99;101004.59;1753648;80;21122;-47
2022/08/10 05:22:15;;;;;;;5.75;2.20;;;;;;;19.98;60.15;101010.92;1755044;81;22271;-48
2022/08/10 05:24:42;;;;;;;7.05;2.55;;;;;;;20.00;59.53;101010.24;1749207;80;21509;-47
2022/08/10 05:27:08;;;;;;;6.10;2.92;;;;;;;20.03;59.42;101012.58;1753799;80;21337;-48
2022/08/10 05:29:35;;;;;;;4.87;2.65;;;;;;;20.04;59.54;101015.59;1752883;80;21145;-48
2022/08/10 05:32:02;;;;;;;4.50;2.30;;;;;;;20.04;59.53;101011.08;1754259;80;21549;-47
2022/08/10 05:34:29;;;;;;;5.65;2.58;;;;;;;20.04;59.24;101011.59;1751279;80;21545;-48
2022/08/10 05:36:56;;;;;;;4.80;2.50;;;;;;;19.99;59.55;101008.59;1746899;81;21549;-48
2022/08/10 05:39:22;;;;;;;7.22;2.30;;;;;;;19.98;59.69;101018.94;1749956;80;21543;-47
2022/08/10 05:41:51;;;;;;;4.70;2.20;;;;;;;20.00;59.58;101026.27;1712146;82;21832;-47
2022/08/10 05:44:20;;;;;;;4.78;2.37;;;;;;;20.06;59.61;101025.61;1705436;81;21030;-48
2022/08/10 05:46:48;;;;;;;5.25;2.30;;;;;;;20.10;59.31;101030.10;1717301;81;21731;-48
2022/08/10 05:49:15;;;;;;;5.35;2.22;;;;;;;20.10;59.56;101029.59;1717832;82;21552;-47
2022/08/10 05:51:42;;;;;;;4.85;2.17;;;;;;;20.13;59.33;101029.26;1687440;84;21086;-48
2022/08/10 05:54:14;;;;;;;5.42;1.87;;;;;;;20.14;58.97;101033.61;1706489;83;21237;-47
2022/08/10 05:56:38;;;;;;;5.60;2.40;;;;;;;20.12;58.88;101035.59;1707740;83;21087;-48
2022/08/10 05:59:04;;;;;;;6.40;2.50;;;;;;;20.09;59.31;101046.64;1699335;82;21083;-48
2022/08/10 06:01:31;;;;;;;6.20;2.22;;;;;;;20.12;59.58;101050.28;1708205;83;21030;-48
2022/08/10 06:03:58;;;;;;;6.08;2.37;;;;;;;20.19;59.34;101049.11;1703759;83;21138;-48
2022/08/10 06:06:25;;;;;;;4.00;1.92;;;;;;;20.21;59.41;101034.59;1707757;83;21211;-47
2022/08/10 06:08:52;;;;;;;5.92;2.60;;;;;;;20.25;59.32;101028.91;1717115;82;21051;-47
2022/08/10 06:11:19;;;;;;;5.08;2.60;;;;;;;20.26;59.29;101023.40;1710015;83;21021;-50
2022/08/10 06:16:33;;;;;;;6.03;2.50;;;;;;;20.30;59.53;101023.37;1702774;84;21514;-48
2022/08/10 06:19:00;;;;;;;4.17;2.10;;;;;;;20.34;59.79;101025.20;1701277;83;21178;-48
2022/08/10 06:21:27;;;;;;;10.30;2.50;;;;;;;20.39;59.29;101018.83;1704783;84;21549;-47
2022/08/10 06:23:54;;;;;;;5.95;2.42;;;;;;;20.43;59.22;101018.02;1702110;84;21122;-48
2022/08/10 06:26:21;;;;;;;8.73;2.58;;;;;;;20.43;58.68;101027.37;1702321;83;21060;-48
2022/08/10 06:28:57;;;;;;;4.70;2.20;;;;;;;20.43;58.82;101025.52;1699243;82;21030;-47
2022/08/10 06:31:24;;;;;;;5.45;2.37;;;;;;;20.45;58.91;101027.51;1699507;82;21664;-48
2022/08/10 06:33:51;;;;;;;5.00;2.40;;;;;;;20.48;59.15;101031.70;1701778;82;21557;-47
2022/08/10 06:36:17;;;;;;;5.83;2.17;;;;;;;20.45;59.34;101031.52;1704038;83;21021;-47
2022/08/10 06:38:43;;;;;;;5.20;2.62;;;;;;;20.45;59.40;101031.52;1704538;83;21158;-48
2022/08/10 06:41:20;;;;;;;6.72;2.52;;;;;;;20.48;59.74;101031.70;1701907;83;21135;-48
2022/08/10 06:43:49;;;;;;;4.90;2.50;;;;;;;20.52;59.64;101036.50;1703599;84;21780;-47
2022/08/10 06:46:16;;;;;;;5.65;2.45;;;;;;;20.50;59.23;101026.48;1700731;82;21101;-47
2022/08/10 06:48:48;;;;;;;4.20;2.33;;;;;;;20.51;59.22;101020.15;1700835;83;21554;-48
2022/08/10 06:51:25;;;;;;;4.97;2.50;;;;;;;20.48;59.45;101021.83;1702933;83;21075;-47
2022/08/10 06:53:56;;;;;;;5.33;2.35;;;;;;;20.48;60.02;101016.99;1700873;82;21060;-49
2022/08/10 06:56:25;;;;;;;4.83;2.35;;;;;;;20.54;59.91;101022.48;1700747;83;21248;-47
2022/08/10 06:59:06;;;;;;;5.72;2.58;;;;;;;20.59;59.97;101026.80;1700327;83;21428;-47
2022/08/10 07:01:34;;;;;;;5.90;2.87;;;;;;;20.62;60.05;101027.45;1699205;83;21093;-48
2022/08/10 07:04:09;;;;;;;6.17;3.25;;;;;;;20.59;60.25;101026.80;1695210;83;21024;-47
2022/08/10 07:06:36;;;;;;;4.33;2.55;;;;;;;20.59;60.85;101030.81;1697403;83;21127;-48
2022/08/10 07:09:03;;;;;;;9.75;2.90;;;;;;;20.62;61.34;101030.13;1686438;84;21149;-47
2022/08/10 07:11:29;;;;;;;5.97;3.27;;;;;;;20.70;61.63;101042.17;1697784;83;21055;-47
2022/08/10 07:13:57;;;;;;;6.45;2.77;;;;;;;20.77;61.67;101039.12;1696417;82;21145;-48
2022/08/10 07:16:27;;;;;;;6.12;2.95;;;;;;;20.81;61.89;101036.92;1688519;83;21072;-47
2022/08/10 07:18:55;;;;;;;10.18;2.67;;;;;;;20.86;62.32;101035.39;1696988;83;21075;-47
2022/08/10 07:21:23;;;;;;;5.17;2.95;;;;;;;20.91;62.47;101030.37;1693372;82;21147;-47
2022/08/10 07:23:50;;;;;;;5.47;3.00;;;;;;;21.02;62.55;101033.66;1682319;83;21321;-47
2022/08/10 07:26:17;;;;;;;6.67;3.60;;;;;;;21.09;62.59;101034.62;1690975;82;21127;-47
2022/08/10 07:28:44;;;;;;;7.28;3.55;;;;;;;21.13;62.44;101035.91;1701195;82;21055;-47
2022/08/10 07:31:13;;;;;;;5.15;3.33;;;;;;;21.17;62.89;101034.57;1696694;83;21035;-47
2022/08/10 07:33:40;;;;;;;4.97;2.92;;;;;;;21.20;63.02;101030.69;1740418;80;22639;-48
2022/08/10 07:36:08;;;;;;;7.10;3.10;;;;;;;21.24;63.21;101032.02;1740647;80;22229;-47
2022/08/10 07:38:34;;;;;;;6.85;3.37;;;;;;;21.33;63.21;101027.78;1739947;81;21138;-47
2022/08/10 07:41:02;;;;;;;5.10;3.27;;;;;;;21.39;62.94;101040.95;1726418;82;21007;-48
2022/08/10 07:43:34;;;;;;;7.15;3.75;;;;;;;21.37;62.52;101039.45;1750464;80;21055;-47
2022/08/10 07:46:03;;;;;;;5.83;3.72;;;;;;;21.29;62.34;101033.66;1725265;82;21095;-47
2022/08/10 07:48:35;;;;;;;5.65;3.25;;;;;;;21.21;62.94;101036.38;1702649;83;22224;-47
2022/08/10 07:51:01;;;;;;;5.25;3.25;;;;;;;21.22;63.54;101026.02;1743038;81;21076;-46
2022/08/10 07:53:37;;;;;;;5.78;3.37;;;;;;;21.29;63.65;101015.75;1743595;80;21446;-47
2022/08/10 07:56:03;;;;;;;;;;;;;;;21.38;63.26;101006.33;1725282;81;21549;-46
2022/08/10 07:58:37;;;;;;;6.15;3.47;;;;;;;21.40;63.31;101002.47;1734190;82;21287;-47
2022/08/10 08:01:04;;;;;;;8.18;4.15;;;;;;;21.37;63.34;101014.88;1708265;82;21023;-47
2022/08/10 08:03:31;;;;;;;13.48;3.60;;;;;;;21.37;63.13;101012.67;1733114;82;21104;-47
2022/08/10 08:05:58;;;;;;;9.30;3.37;;;;;;;21.39;63.24;101013.36;1749259;80;21371;-47
2022/08/10 08:08:26;;;;;;;6.12;3.47;;;;;;;21.43;63.11;101020.83;1697665;82;21072;-47
2022/08/10 08:10:53;;;;;;;7.05;3.35;;;;;;;21.45;63.45;101020.17;1739875;81;21139;-47
2022/08/10 08:13:20;;;;;;;5.50;3.17;;;;;;;21.51;63.47;101030.69;1740372;81;21041;-46
2022/08/10 08:15:46;;;;;;;6.20;3.50;;;;;;;21.57;63.26;101029.98;1702262;82;21157;-46
2022/08/10 08:18:13;;;;;;;5.85;3.33;;;;;;;21.63;62.76;101031.92;1737212;82;21047;-47
2022/08/10 08:20:39;;;;;;;5.65;3.45;;;;;;;21.69;62.12;101029.05;1701781;83;22224;-47
2022/08/10 08:23:06;;;;;;;5.83;3.52;;;;;;;21.71;61.83;101034.53;1699305;84;21107;-47
2022/08/10 08:25:33;;;;;;;5.10;2.62;;;;;;;21.71;62.31;101025.67;1702642;83;21058;-47
2022/08/10 08:28:00;;;;;;;5.62;3.15;;;;;;;21.71;62.81;101029.17;1737353;81;20988;-47
2022/08/10 08:30:27;;;;;;;6.25;3.65;;;;;;;21.73;62.81;101026.32;1742496;82;21080;-47
2022/08/10 08:32:55;;;;;;;5.97;3.40;;;;;;;21.78;63.03;101033.30;1731481;81;21138;-47
2022/08/10 08:35:21;;;;;;;5.72;3.42;;;;;;;21.82;62.94;101031.95;1741485;80;21134;-47
2022/08/10 08:37:48;;;;;;;9.25;3.58;;;;;;;21.86;61.67;101033.75;1718382;82;21070;-46
2022/08/10 08:40:27;;;;;;;7.03;3.47;;;;;;;21.85;61.09;101028.06;1734200;80;21126;-47
2022/08/10 08:43:22;;;;;;;6.90;3.33;;;;;;;21.84;61.66;101033.11;1736619;81;21115;-47
2022/08/10 08:46:31;;;;;;;5.35;2.80;;;;;;;21.83;60.88;101034.11;1698250;82;21078;-47
2022/08/10 08:49:18;;;;;;;6.20;3.10;;;;;;;21.81;58.94;101035.62;1740459;81;21055;-48
2022/08/10 08:52:13;;;;;;;10.43;3.22;;;;;;;21.81;58.64;101026.77;1731845;81;21656;-47
2022/08/10 08:54:53;;;;;;;7.33;3.40;;;;;;;21.82;58.95;101024.39;1738861;80;21019;-48
2022/08/10 08:57:47;;;;;;;7.87;3.67;;;;;;;21.86;58.54;101033.75;1697535;83;21073;-48
2022/08/10 09:00:37;;;;;;;5.35;3.05;;;;;;;21.89;58.36;101034.22;1705440;83;21107;-48
2022/08/10 09:03:27;;;;;;;6.12;3.15;;;;;;;22.00;58.10;101028.09;1706422;83;21100;-47
2022/08/10 09:06:40;;;;;;;5.87;3.15;;;;;;;22.08;57.81;101030.17;1702384;82;21067;-47
2022/08/10 09:09:38;;;;;;;5.95;2.85;;;;;;;22.10;57.95;101028.66;1602264;87;21190;-46
2022/08/10 09:12:35;;;;;;;7.25;3.60;;;;;;;22.13;57.83;101020.77;1649146;85;21525;-47
2022/08/10 09:15:07;;;;;;;7.70;3.30;;;;;;;22.15;57.49;101013.37;1696325;83;21414;-47
2022/08/10 09:18:03;;;;;;;7.92;3.40;;;;;;;22.11;57.20;101018.77;1740756;81;21115;-47
2022/08/10 09:21:02;;;;;;;6.72;3.70;;;;;;;22.08;57.67;101019.45;1745525;81;21118;-47
2022/08/10 09:23:43;;;;;;;6.33;3.85;;;;;;;22.05;57.89;101021.67;1707328;82;21137;-47
2022/08/10 09:26:20;;;;;;;7.55;3.50;;;;;;;22.01;57.89;101026.57;1744011;80;21142;-48
2022/08/10 09:28:51;;;;;;;6.05;3.25;;;;;;;21.98;57.98;101024.77;1744366;82;21069;-47
2022/08/10 09:31:20;;;;;;;7.83;3.90;;;;;;;22.03;58.38;101021.86;1734883;81;21146;-47
2022/08/10 09:33:58;;;;;;;7.78;3.62;;;;;;;22.12;58.30;101025.28;1747410;81;21043;-47
2022/08/10 09:36:45;;;;;;;7.70;3.62;;;;;;;22.18;57.85;101027.23;1741892;81;21050;-47
2022/08/10 09:39:36;;;;;;;5.92;3.50;;;;;;;22.20;57.86;101025.20;1748079;82;21165;-47
2022/08/10 09:42:42;;;;;;;6.80;4.00;;;;;;;22.23;58.12;101025.35;1746027;80;21530;-47
2022/08/10 09:45:36;;;;;;;6.40;4.10;;;;;;;22.26;58.50;101020.45;1743836;80;21157;-47
2022/08/10 09:48:24;;;;;;;9.30;4.20;;;;;;;22.29;57.82;101029.98;1709326;81;21024;-48
2022/08/10 09:51:29;;;;;;;6.25;4.08;;;;;;;22.29;57.82;101025.14;1743805;80;21039;-47
2022/08/10 09:54:29;;;;;;;8.50;3.67;;;;;;;22.30;58.44;101030.33;1712589;83;21475;-47
2022/08/10 09:57:18;;;;;;;6.20;3.80;;;;;;;22.40;57.45;101033.56;1745701;81;21035;-47
2022/08/10 10:00:11;;;;;;;6.28;3.87;;;;;;;22.46;57.07;101029.33;1743236;80;21084;-47
2022/08/10 10:02:56;;;;;;;6.90;4.08;;;;;;;22.48;57.24;101023.26;1746410;81;21437;-47
2022/08/10 10:05:53;;;;;;;8.65;4.17;;;;;;;22.52;57.40;101017.02;1710281;81;21069;-47
2022/08/10 10:08:34;;;;;;;7.87;3.95;;;;;;;22.55;57.32;101013.44;1705865;82;21548;-48
2022/08/10 10:11:20;;;;;;;6.30;3.80;;;;;;;22.60;57.12;101014.23;1745581;82;21044;-47
2022/08/10 10:14:17;;;;;;;5.87;4.00;;;;;;;22.62;57.71;101008.16;1730339;81;21133;-48
2022/08/10 10:17:07;;;;;;;6.17;3.87;;;;;;;22.67;57.49;101007.09;1728611;80;21063;-47
2022/08/10 10:20:08;;;;;;;7.25;4.08;;;;;;;22.71;57.13;101004.86;1668602;81;21632;-47
2022/08/10 10:23:02;;;;;;;5.33;3.25;;;;;;;22.75;57.25;101002.97;1732653;80;21486;-47
2022/08/10 10:25:40;;;;;;;7.37;4.10;;;;;;;22.84;56.54;101007.70;1737492;82;21058;-47
2022/08/10 10:28:30;;;;;;;5.12;3.42;;;;;;;22.90;56.42;101010.16;1680293;83;21138;-47
2022/08/10 10:31:25;;;;;;;9.80;4.15;;;;;;;22.96;56.26;101007.56;1739511;81;21056;-47
2022/08/10 10:34:27;;;;;;;5.83;3.90;;;;;;;23.05;56.28;101000.22;1726339;82;21028;-47
2022/08/10 10:36:53;;;;;;;5.90;3.85;;;;;;;23.20;56.34;100996.17;1738522;81;21036;-48
2022/08/10 10:39:20;;;;;;;7.33;4.20;;;;;;;23.33;56.10;100994.96;1695487;83;22428;-48
2022/08/10 10:42:04;;;;;;;7.53;5.17;;;;;;;23.43;55.65;100992.45;1699443;82;22229;-48
2022/08/10 10:45:15;;;;;;;7.05;3.92;;;;;;;23.52;55.37;100990.78;1739666;80;21122;-48
2022/08/10 10:48:18;;;;;;;6.28;3.95;;;;;;;23.59;54.58;100984.62;1733661;80;21047;-47
2022/08/10 10:51:17;;;;;;;7.30;4.45;;;;;;;23.62;55.17;100984.23;1739967;82;21024;-47
2022/08/10 10:53:59;;;;;;;6.47;4.10;;;;;;;23.69;55.30;100977.08;1733971;80;21043;-46
2022/08/10 10:56:36;;;;;;;6.45;4.47;;;;;;;23.76;54.85;100971.23;1731942;81;21099;-46
2022/08/10 10:59:15;;;;;;;6.62;3.92;;;;;;;23.80;54.44;100971.14;1733459;80;21339;-48
2022/08/10 11:02:13;;;;;;;7.37;4.08;;;;;;;23.82;54.51;100970.98;1699916;83;21070;-47
2022/08/10 11:05:00;;;;;;;5.78;4.17;;;;;;;23.80;54.44;100968.46;1734042;80;21061;-47
2022/08/10 11:07:39;;;;;;;6.17;4.05;;;;;;;23.77;55.08;100971.56;1698199;83;21106;-49
2022/08/10 11:10:21;;;;;;;8.03;4.33;;;;;;;23.81;55.39;100974.16;1697558;84;21148;-48
2022/08/10 11:13:23;;;;;;;6.22;4.17;;;;;;;23.90;55.75;100974.34;1738900;81;21090;-47
2022/08/10 11:16:10;;;;;;;6.78;4.87;;;;;;;24.02;55.07;100976.49;1754002;81;21100;-47
2022/08/10 11:19:23;;;;;;;9.73;4.72;;;;;;;24.08;55.13;100982.44;1752940;81;21548;-47
2022/08/10 11:22:23;;;;;;;6.20;3.87;;;;;;;24.09;54.50;100981.39;1746918;81;21577;-49
2022/08/10 11:25:03;;;;;;;5.37;3.90;;;;;;;24.09;54.54;100976.02;1751635;81;21956;-47
2022/08/10 11:28:01;;;;;;;5.85;4.00;;;;;;;24.03;54.33;100967.41;1754778;81;21047;-47
2022/08/10 11:30:34;;;;;;;6.78;4.20;;;;;;;23.95;54.80;100961.67;1750138;81;21015;-47
2022/08/10 11:33:18;;;;;;;6.17;4.35;;;;;;;23.87;54.49;100955.95;1714500;82;21081;-46
2022/08/10 11:36:03;;;;;;;6.62;4.15;;;;;;;23.79;54.49;100949.84;1720535;82;21053;-46
2022/08/10 11:39:22;;;;;;;7.92;4.45;;;;;;;23.71;55.19;100954.88;1720262;82;21146;-47
2022/08/10 11:41:55;;;;;;;8.45;4.35;;;;;;;23.70;55.57;100954.55;1716283;82;21062;-47
2022/08/10 11:44:52;;;;;;;7.33;4.40;;;;;;;23.70;55.07;100958.08;1712095;82;21049;-46
2022/08/10 11:47:22;;;;;;;5.83;4.50;;;;;;;23.73;55.44;100955.50;1693424;84;21087;-47
2022/08/10 11:49:59;;;;;;;5.47;3.65;;;;;;;23.77;55.41;100953.25;1697727;84;21084;-47
2022/08/10 11:53:00;;;;;;;6.92;4.00;;;;;;;23.81;54.72;100948.64;1686634;84;21135;-47
2022/08/10 11:55:31;;;;;;;5.80;4.05;;;;;;;23.87;54.67;100957.79;1651282;84;21134;-46
2022/08/10 11:59:54;;;;;;;7.60;3.42;;;;;;;23.96;54.52;100955.28;1691976;84;21020;-47
2022/08/10 12:00:31;;;;;;;7.37;4.60;;;;;;;24.07;53.76;100949.84;1671679;84;21052;-47
2022/08/10 12:03:01;;;;;;;7.42;3.75;;;;;;;24.15;54.13;100955.59;1693497;84;21063;-48